createdAt,value
2022-08-21T00:01:58.516Z,97961.81
2022-08-21T00:04:30.224Z,97956.09
2022-08-21T00:06:58.580Z,97950.91
2022-08-21T00:09:26.617Z,97959.03
2022-08-21T00:11:57.072Z,97960.69
2022-08-21T00:14:28.123Z,97963.81
2022-08-21T00:17:00.239Z,97958.25
2022-08-21T00:19:30.294Z,97968.38
2022-08-21T00:21:58.860Z,97948.28
2022-08-21T00:24:27.099Z,97953.03
2022-08-21T00:26:54.958Z,97965.59
2022-08-21T00:29:23.999Z,97947.31
2022-08-21T00:31:55.910Z,97939.97
2022-08-21T00:34:24.186Z,97932.25
2022-08-21T00:36:52.149Z,97936.19
2022-08-21T00:39:20.190Z,97931.13
2022-08-21T00:41:49.183Z,97925.09
2022-08-21T00:44:17.827Z,97917.75
2022-08-21T00:46:46.351Z,97929.50
2022-08-21T00:49:15.449Z,97925.72
2022-08-21T00:51:55.442Z,97924.44
2022-08-21T00:54:26.550Z,97928.50
2022-08-21T00:56:59.659Z,97925.94
2022-08-21T00:59:28.575Z,97920.38
2022-08-21T01:01:57.631Z,97917.75
2022-08-21T01:04:25.668Z,97905.03
2022-08-21T01:06:54.750Z,97905.53
2022-08-21T01:09:22.749Z,97894.44
2022-08-21T01:11:52.759Z,97908.94
2022-08-21T01:14:21.670Z,97905.53
2022-08-21T01:16:50.904Z,97897.84
2022-08-21T01:19:19.944Z,97887.88
2022-08-21T01:21:47.997Z,97887.38
2022-08-21T01:24:17.042Z,97887.38
2022-08-21T01:26:45.964Z,97892.63
2022-08-21T01:29:33.146Z,97889.50
2022-08-21T01:32:03.236Z,97885.91
2022-08-21T01:34:32.133Z,97871.88
2022-08-21T01:37:00.320Z,97874.19
2022-08-21T01:39:28.330Z,97877.75
2022-08-21T01:41:56.398Z,97874.19
2022-08-21T01:44:51.446Z,97884.47
2022-08-21T01:47:25.341Z,97863.09
2022-08-21T01:49:54.553Z,97860.47
2022-08-21T01:52:22.590Z,97852.16
2022-08-21T01:54:55.065Z,97856.38
2022-08-21T01:57:26.110Z,97837.91
2022-08-21T01:59:54.754Z,97836.31
2022-08-21T02:02:22.812Z,97830.41
2022-08-21T02:04:51.848Z,97823.56
2022-08-21T02:07:20.890Z,97833.53
2022-08-21T02:09:48.956Z,97827.47
2022-08-21T02:12:24.664Z,97831.91
2022-08-21T02:14:52.942Z,97838.13
2022-08-21T02:17:21.859Z,97842.19
2022-08-21T02:19:49.348Z,97838.59
2022-08-21T02:22:17.201Z,97841.00
2022-08-21T02:24:54.049Z,97825.50
2022-08-21T02:27:26.702Z,97829.78
2022-08-21T02:29:57.347Z,97823.91
2022-08-21T02:32:25.390Z,97825.69
2022-08-21T02:34:54.552Z,97824.56
2022-08-21T02:37:24.347Z,97806.94
2022-08-21T02:39:52.612Z,97804.63
2022-08-21T02:42:21.577Z,97811.00
2022-08-21T02:44:49.653Z,97805.44
2022-08-21T02:47:18.294Z,97806.94
2022-08-21T02:49:46.278Z,97814.13
2022-08-21T02:52:16.703Z,97824.25
2022-08-21T02:54:44.835Z,97823.06
2022-08-21T02:57:12.905Z,97824.06
2022-08-21T02:59:40.951Z,97832.88
2022-08-21T03:02:12.062Z,97833.03
2022-08-21T03:04:43.422Z,97833.69
2022-08-21T03:07:18.683Z,97833.03
2022-08-21T03:09:55.887Z,97819.94
2022-08-21T03:12:29.969Z,97816.66
2022-08-21T03:15:00.250Z,97824.38
2022-08-21T03:17:29.684Z,97828.16
2022-08-21T03:19:58.321Z,97827.13
2022-08-21T03:22:27.236Z,97828.75
2022-08-21T03:24:56.411Z,97844.13
2022-08-21T03:27:23.795Z,97843.44
2022-08-21T03:29:52.512Z,97842.97
2022-08-21T03:32:22.775Z,97840.50
2022-08-21T03:34:51.147Z,97858.78
2022-08-21T03:37:19.665Z,97857.16
2022-08-21T03:39:47.749Z,97858.78
2022-08-21T03:42:15.750Z,97857.16
2022-08-21T03:44:44.166Z,97860.63
2022-08-21T03:47:12.610Z,97859.09
2022-08-21T03:49:40.154Z,97870.38
2022-08-21T03:52:08.066Z,97868.25
2022-08-21T03:54:36.019Z,97875.28
2022-08-21T03:57:04.064Z,97868.25
2022-08-21T03:59:32.100Z,97867.44
2022-08-21T04:02:02.225Z,97863.69
2022-08-21T04:04:32.211Z,97876.44
2022-08-21T04:07:00.305Z,97867.59
2022-08-21T04:09:29.309Z,97863.50
2022-08-21T04:11:57.353Z,97879.38
2022-08-21T04:14:27.406Z,97868.13
2022-08-21T04:16:56.294Z,97863.88
2022-08-21T04:19:25.498Z,97865.97
2022-08-21T04:21:53.554Z,97855.19
2022-08-21T04:24:21.601Z,97861.56
2022-08-21T04:26:51.501Z,97860.44
2022-08-21T04:29:21.683Z,97856.31
2022-08-21T04:31:50.753Z,97865.00
2022-08-21T04:34:18.777Z,97876.44
2022-08-21T04:36:47.837Z,97873.13
2022-08-21T04:39:15.875Z,97866.59
2022-08-21T04:41:43.920Z,97868.59
2022-08-21T04:44:12.638Z,97865.00
2022-08-21T04:46:42.155Z,97884.47
2022-08-21T04:49:13.074Z,97862.69
2022-08-21T04:51:41.747Z,97874.31
2022-08-21T04:54:13.991Z,97863.69
2022-08-21T04:56:52.215Z,97865.34
2022-08-21T04:59:24.972Z,97872.53
2022-08-21T05:01:52.668Z,97876.59
2022-08-21T05:04:22.210Z,97875.78
2022-08-21T05:06:50.404Z,97869.75
2022-08-21T05:09:20.360Z,97864.22
2022-08-21T05:11:49.519Z,97875.78
2022-08-21T05:14:18.559Z,97879.72
2022-08-21T05:16:46.607Z,97885.09
2022-08-21T05:19:16.665Z,97892.94
2022-08-21T05:21:46.726Z,97892.63
2022-08-21T05:24:15.748Z,97900.13
2022-08-21T05:26:46.669Z,97888.66
2022-08-21T05:29:19.138Z,97889.50
2022-08-21T05:31:47.903Z,97897.97
2022-08-21T05:34:17.109Z,97906.81
2022-08-21T05:36:47.019Z,97904.53
2022-08-21T05:39:15.061Z,97900.28
2022-08-21T05:41:43.089Z,97893.25
2022-08-21T05:44:11.414Z,97897.53
2022-08-21T05:46:40.230Z,97891.81
2022-08-21T05:49:08.258Z,97893.25
2022-08-21T05:51:38.273Z,97881.03
2022-08-21T05:54:06.377Z,97891.81
2022-08-21T05:56:35.402Z,97891.81
2022-08-21T05:59:03.468Z,97895.06
2022-08-21T06:01:38.597Z,97877.94
2022-08-21T06:04:07.068Z,97890.16
2022-08-21T06:06:35.599Z,97889.84
2022-08-21T06:09:04.660Z,97892.28
2022-08-21T06:11:34.702Z,97892.78
2022-08-21T06:14:02.487Z,97905.03
2022-08-21T06:16:31.818Z,97905.84
2022-08-21T06:19:02.924Z,97903.88
2022-08-21T06:21:31.887Z,97893.41
2022-08-21T06:24:00.958Z,97899.47
2022-08-21T06:26:30.002Z,97899.16
2022-08-21T06:28:58.055Z,97895.88
2022-08-21T06:31:27.122Z,97895.06
2022-08-21T06:33:55.146Z,97898.34
2022-08-21T06:36:23.372Z,97906.00
2022-08-21T06:38:51.872Z,97909.44
2022-08-21T06:41:44.387Z,97914.34
2022-08-21T06:44:13.360Z,97913.34
2022-08-21T06:46:41.413Z,97919.41
2022-08-21T06:49:15.626Z,97913.19
2022-08-21T06:51:53.349Z,97922.50
2022-08-21T06:54:21.291Z,97916.28
2022-08-21T06:56:50.830Z,97916.94
2022-08-21T06:59:20.362Z,97914.63
2022-08-21T07:01:48.857Z,97924.75
2022-08-21T07:04:18.975Z,97916.78
2022-08-21T07:06:48.147Z,97925.75
2022-08-21T07:09:18.692Z,97924.44
2022-08-21T07:11:50.176Z,97935.41
2022-08-21T07:14:20.111Z,97926.72
2022-08-21T07:16:50.017Z,97926.25
2022-08-21T07:19:18.056Z,97921.81
2022-08-21T07:21:49.388Z,97926.25
2022-08-21T07:24:18.674Z,97931.28
2022-08-21T07:26:47.204Z,97929.16
2022-08-21T07:29:15.273Z,97945.97
2022-08-21T07:31:45.316Z,97943.03
2022-08-21T07:34:13.370Z,97942.72
2022-08-21T07:36:42.426Z,97949.25
2022-08-21T07:39:10.460Z,97949.09
2022-08-21T07:41:40.527Z,97949.69
2022-08-21T07:44:09.587Z,97949.69
2022-08-21T07:46:43.647Z,97950.22
2022-08-21T07:49:12.262Z,97961.50
2022-08-21T07:51:41.718Z,97944.47
2022-08-21T07:54:11.332Z,97933.19
2022-08-21T07:56:46.800Z,97943.66
2022-08-21T07:59:15.869Z,97943.97
2022-08-21T08:01:43.971Z,97939.56
2022-08-21T08:04:14.829Z,97942.66
2022-08-21T08:06:43.741Z,97939.06
2022-08-21T08:09:12.097Z,97943.81
2022-08-21T08:11:49.101Z,97936.31
2022-08-21T08:14:19.162Z,97938.56
2022-08-21T08:17:26.432Z,97942.84
2022-08-21T08:20:05.476Z,97938.91
2022-08-21T08:22:43.314Z,97940.22
2022-08-21T08:26:07.382Z,97941.19
2022-08-21T08:29:34.763Z,97940.06
2022-08-21T08:32:08.388Z,97937.75
2022-08-21T08:37:45.968Z,97934.06
2022-08-21T08:43:22.565Z,97923.44
2022-08-21T08:49:22.843Z,97928.81
2022-08-21T08:53:02.820Z,97923.91
2022-08-21T08:56:21.521Z,97917.88
2022-08-21T09:01:39.202Z,97906.75
2022-08-21T09:04:31.935Z,97912.13
2022-08-21T09:07:43.250Z,97914.56
2022-08-21T09:11:14.241Z,97919.16
2022-08-21T09:14:08.582Z,97916.53
2022-08-21T09:17:21.469Z,97923.88
2022-08-21T09:20:48.001Z,97922.88
2022-08-21T09:23:55.279Z,97921.56
2022-08-21T09:26:44.104Z,97922.41
2022-08-21T16:51:33.784Z,98067.78
2022-08-21T16:54:27.541Z,98060.63
2022-08-21T17:00:11.733Z,98048.44
2022-08-21T17:03:00.180Z,98047.81
2022-08-21T17:11:56.611Z,98035.84
2022-08-21T17:15:04.681Z,98031.69
2022-08-21T17:18:02.714Z,98043.75
2022-08-21T17:20:53.895Z,98044.25
2022-08-21T17:23:43.283Z,98039.84
2022-08-21T17:26:41.154Z,98020.19
2022-08-21T17:29:33.112Z,98027.44
2022-08-21T17:32:05.699Z,98030.75
2022-08-21T17:34:32.942Z,98029.63
2022-08-21T17:37:00.727Z,98043.84
2022-08-21T17:39:27.915Z,98044.97
2022-08-21T17:41:57.907Z,98039.44
2022-08-21T17:44:25.579Z,98041.91
2022-08-21T17:46:52.790Z,98053.16
2022-08-21T17:49:23.882Z,98050.94
2022-08-21T17:51:54.133Z,98051.97
2022-08-21T17:54:21.354Z,98039.06
2022-08-21T17:56:48.633Z,98044.16
2022-08-21T17:59:27.159Z,98034.03
2022-08-21T18:02:09.877Z,98031.47
2022-08-21T18:05:07.919Z,98028.19
2022-08-21T18:07:35.247Z,98046.63
2022-08-21T18:10:07.511Z,98047.47
2022-08-21T18:12:41.169Z,98057.59
2022-08-21T18:15:10.750Z,98057.06
2022-08-21T18:17:38.096Z,98049.59
2022-08-21T18:20:07.262Z,98056.69
2022-08-21T18:22:34.483Z,98058.72
2022-08-21T18:25:01.666Z,98083.31
2022-08-21T18:27:29.829Z,98088.84
2022-08-21T18:30:00.167Z,98094.38
2022-08-21T18:32:30.719Z,98092.72
2022-08-21T18:34:58.763Z,98083.31
2022-08-21T18:37:25.856Z,98068.97
2022-08-21T18:39:53.171Z,98070.81
2022-08-21T18:42:28.710Z,98065.28
2022-08-21T18:44:58.080Z,98062.81
2022-08-21T18:47:29.160Z,98054.31
2022-08-21T18:49:56.804Z,98069.97
2022-08-21T18:55:13.479Z,98077.97
2022-08-21T18:57:46.560Z,98082.41
2022-08-21T19:00:19.932Z,98087.09
2022-08-21T19:02:47.485Z,98080.75
2022-08-21T19:05:16.107Z,98072.44
2022-08-21T19:07:45.373Z,98055.03
2022-08-21T19:10:28.293Z,98059.44
2022-08-21T19:12:58.155Z,98051.16
2022-08-21T19:15:28.819Z,98041.75
2022-08-21T19:18:03.807Z,98037.91
2022-08-21T19:20:35.064Z,98035.69
2022-08-21T19:23:03.758Z,98045.63
2022-08-21T19:25:33.831Z,98032.38
2022-08-21T19:31:16.375Z,98013.03
2022-08-21T19:33:46.241Z,98006.09
2022-08-21T19:36:18.365Z,98014.28
2022-08-21T19:38:48.202Z,98018.16
2022-08-21T19:41:16.450Z,98015.94
2022-08-21T19:43:45.516Z,98019.50
2022-08-21T19:46:13.194Z,98015.09
2022-08-21T19:51:29.509Z,98023.41
2022-08-21T19:53:57.413Z,98035.28
2022-08-21T19:56:27.819Z,98032.00
2022-08-21T19:58:56.395Z,98030.06
2022-08-21T20:01:26.011Z,98038.84
2022-08-21T20:03:54.682Z,98035.28
2022-08-21T20:06:23.938Z,98027.78
2022-08-21T20:08:58.082Z,98013.75
2022-08-21T20:11:31.753Z,98017.88
2022-08-21T20:14:00.638Z,98010.69
2022-08-21T20:16:28.373Z,98026.06
2022-08-21T20:18:55.606Z,98019.72
2022-08-21T20:21:22.877Z,98017.78
2022-08-21T20:23:50.171Z,98012.25
2022-08-21T20:26:18.980Z,98021.88
2022-08-21T20:28:46.502Z,98024.72
2022-08-21T20:31:20.000Z,98048.91
2022-08-21T20:33:49.476Z,98061.34
2022-08-21T20:36:17.586Z,98039.50
2022-08-21T20:38:44.807Z,98031.94
2022-08-21T20:41:21.178Z,98034.38
2022-08-21T20:43:48.856Z,98010.00
2022-08-21T20:46:22.371Z,98019.59
2022-08-21T20:48:50.041Z,98025.47
2022-08-21T20:51:28.302Z,98023.81
2022-08-21T20:54:37.059Z,98034.59
2022-08-21T20:57:04.203Z,98031.50
2022-08-21T20:59:34.040Z,98016.84
2022-08-21T21:02:16.417Z,98007.75
2022-08-21T21:04:55.985Z,98005.38
2022-08-21T21:07:35.094Z,98001.78
2022-08-21T21:10:04.699Z,98006.41
2022-08-21T21:12:34.803Z,98016.84
2022-08-21T21:15:14.653Z,98016.66
2022-08-21T21:17:47.905Z,98005.28
2022-08-21T21:20:19.983Z,98010.81
2022-08-21T21:22:53.869Z,98005.47
2022-08-21T21:25:40.449Z,98004.16
2022-08-21T21:28:12.859Z,98007.94
2022-08-21T21:30:46.489Z,98002.09
2022-08-21T21:33:17.086Z,98016.13
2022-08-21T21:35:49.126Z,97998.81
2022-08-21T21:38:24.001Z,98003.44
2022-08-21T21:41:01.537Z,98000.75
2022-08-21T21:44:06.037Z,97996.88
2022-08-21T21:46:46.157Z,97994.41
2022-08-21T21:49:27.362Z,97993.59
2022-08-21T21:52:31.965Z,97993.69
2022-08-21T22:02:01.128Z,97978.53
2022-08-21T22:05:00.333Z,97992.09
2022-08-21T22:07:55.003Z,97983.44
2022-08-21T22:10:34.030Z,97994.84
2022-08-21T22:13:26.147Z,97995.63
2022-08-21T22:15:54.837Z,97987.88
2022-08-21T22:18:26.136Z,97985.63
2022-08-21T22:21:10.725Z,97991.75
2022-08-21T22:23:49.521Z,97991.66
2022-08-21T22:26:32.203Z,97993.41
2022-08-21T22:29:04.954Z,97986.75
2022-08-21T22:31:38.541Z,97983.25
2022-08-21T22:34:19.778Z,98002.44
2022-08-21T22:36:54.643Z,97975.25
2022-08-21T22:39:36.054Z,97984.28
2022-08-21T22:42:23.432Z,97982.94
2022-08-21T22:45:04.780Z,97992.59
2022-08-21T22:48:05.865Z,97990.00
2022-08-21T22:50:48.171Z,97987.88
2022-08-21T22:53:26.544Z,97984.28
2022-08-21T22:55:55.696Z,97967.75
2022-08-21T22:58:35.375Z,97957.53
2022-08-21T23:01:33.715Z,97950.97
2022-08-21T23:04:16.481Z,97950.34
2022-08-21T23:06:56.063Z,97947.38
2022-08-21T23:09:36.639Z,97962.47
2022-08-21T23:12:24.402Z,97935.84
2022-08-21T23:15:03.289Z,97952.00
2022-08-21T23:17:44.513Z,97944.13
2022-08-21T23:20:56.374Z,97946.47
2022-08-21T23:23:35.391Z,97940.53
2022-08-21T23:30:00.370Z,97951.59
2022-08-21T23:32:40.779Z,97965.09
2022-08-21T23:35:15.792Z,97962.03
2022-08-21T23:37:54.192Z,97961.53
2022-08-21T23:43:38.970Z,97952.63
2022-08-21T23:46:33.612Z,97953.44
2022-08-21T23:49:25.540Z,97947.91
2022-08-21T23:52:14.676Z,97952.63
2022-08-21T23:55:20.848Z,97932.34
2022-08-21T23:58:06.061Z,97936.66
